sensor_id;sensor_type;location;lat;lon;timestamp;temperature;humidity
10384;DHT22;5238;43.508;4.980;2022-12-16T02:16:06;11.00;91.30
10384;DHT22;5238;43.508;4.980;2022-12-16T02:22:31;10.90;91.30
10384;DHT22;5238;43.508;4.980;2022-12-16T02:52:42;10.70;91.30
10384;DHT22;5238;43.508;4.980;2022-12-16T02:55:50;10.80;91.30
10384;DHT22;5238;43.508;4.980;2022-12-16T03:05:38;10.90;91.30
10384;DHT22;5238;43.508;4.980;2022-12-16T04:18:37;10.80;91.30
10384;DHT22;5238;43.508;4.980;2022-12-16T04:21:22;10.70;91.30
10384;DHT22;5238;43.508;4.980;2022-12-16T04:24:10;10.70;91.30
10384;DHT22;5238;43.508;4.980;2022-12-16T04:26:45;10.70;91.30
10384;DHT22;5238;43.508;4.980;2022-12-16T04:29:29;10.60;91.30
10384;DHT22;5238;43.508;4.980;2022-12-16T04:31:57;10.60;91.30
10384;DHT22;5238;43.508;4.980;2022-12-16T04:34:26;10.60;91.30
10384;DHT22;5238;43.508;4.980;2022-12-16T04:36:54;10.50;91.30
10384;DHT22;5238;43.508;4.980;2022-12-16T04:39:39;10.50;91.30
10384;DHT22;5238;43.508;4.980;2022-12-16T04:42:23;10.40;91.30
10384;DHT22;5238;43.508;4.980;2022-12-16T04:45:05;10.40;91.30
10384;DHT22;5238;43.508;4.980;2022-12-16T04:47:50;10.40;91.30
10384;DHT22;5238;43.508;4.980;2022-12-16T04:50:48;10.30;91.30
10384;DHT22;5238;43.508;4.980;2022-12-16T04:53:33;10.30;91.30
10384;DHT22;5238;43.508;4.980;2022-12-16T04:56:17;10.30;91.30
10384;DHT22;5238;43.508;4.980;2022-12-16T04:59:02;10.40;91.30
10384;DHT22;5238;43.508;4.980;2022-12-16T05:01:46;10.30;91.30
10384;DHT22;5238;43.508;4.980;2022-12-16T05:04:34;10.30;91.30
10384;DHT22;5238;43.508;4.980;2022-12-16T05:07:20;10.30;91.30
10384;DHT22;5238;43.508;4.980;2022-12-16T05:10:05;10.30;91.30
10384;DHT22;5238;43.508;4.980;2022-12-16T05:13:05;10.20;91.30
10384;DHT22;5238;43.508;4.980;2022-12-16T05:15:49;10.20;91.30
10384;DHT22;5238;43.508;4.980;2022-12-16T05:18:34;10.20;91.30
10384;DHT22;5238;43.508;4.980;2022-12-16T05:21:33;10.20;91.30
10384;DHT22;5238;43.508;4.980;2022-12-16T05:24:34;10.10;91.30
10384;DHT22;5238;43.508;4.980;2022-12-16T05:27:18;10.10;91.30
10384;DHT22;5238;43.508;4.980;2022-12-16T05:30:03;10.10;91.30
10384;DHT22;5238;43.508;4.980;2022-12-16T05:32:47;10.00;91.30
10384;DHT22;5238;43.508;4.980;2022-12-16T05:35:32;10.00;91.30
10384;DHT22;5238;43.508;4.980;2022-12-16T05:38:16;9.90;91.30
10384;DHT22;5238;43.508;4.980;2022-12-16T05:41:03;9.90;91.30
10384;DHT22;5238;43.508;4.980;2022-12-16T05:43:47;9.80;91.30
10384;DHT22;5238;43.508;4.980;2022-12-16T05:46:31;9.80;91.30
10384;DHT22;5238;43.508;4.980;2022-12-16T05:49:15;9.70;91.30
10384;DHT22;5238;43.508;4.980;2022-12-16T05:52:00;9.70;91.30
10384;DHT22;5238;43.508;4.980;2022-12-16T05:54:44;9.60;91.30
10384;DHT22;5238;43.508;4.980;2022-12-16T05:57:30;9.60;91.30
10384;DHT22;5238;43.508;4.980;2022-12-16T06:00:14;9.50;91.30
10384;DHT22;5238;43.508;4.980;2022-12-16T06:02:59;9.50;91.30
10384;DHT22;5238;43.508;4.980;2022-12-16T06:05:43;9.40;91.30
10384;DHT22;5238;43.508;4.980;2022-12-16T06:08:28;9.30;91.30
10384;DHT22;5238;43.508;4.980;2022-12-16T06:11:12;9.30;91.30
10384;DHT22;5238;43.508;4.980;2022-12-16T06:13:58;9.20;91.30
10384;DHT22;5238;43.508;4.980;2022-12-16T06:16:42;9.20;91.30
10384;DHT22;5238;43.508;4.980;2022-12-16T06:19:27;9.10;91.30
10384;DHT22;5238;43.508;4.980;2022-12-16T06:22:11;9.10;91.30
10384;DHT22;5238;43.508;4.980;2022-12-16T06:25:04;9.00;91.30
10384;DHT22;5238;43.508;4.980;2022-12-16T06:27:50;8.90;91.30
10384;DHT22;5238;43.508;4.980;2022-12-16T06:30:36;8.90;91.30
10384;DHT22;5238;43.508;4.980;2022-12-16T06:33:23;8.80;91.30
10384;DHT22;5238;43.508;4.980;2022-12-16T06:36:08;8.80;91.30
10384;DHT22;5238;43.508;4.980;2022-12-16T06:38:52;8.70;91.30
10384;DHT22;5238;43.508;4.980;2022-12-16T06:41:37;8.70;91.30
10384;DHT22;5238;43.508;4.980;2022-12-16T06:44:26;8.70;91.30
10384;DHT22;5238;43.508;4.980;2022-12-16T06:47:12;8.60;91.30
10384;DHT22;5238;43.508;4.980;2022-12-16T06:49:57;8.50;91.30
10384;DHT22;5238;43.508;4.980;2022-12-16T06:52:42;8.50;91.30
10384;DHT22;5238;43.508;4.980;2022-12-16T06:55:32;8.40;91.30
10384;DHT22;5238;43.508;4.980;2022-12-16T06:58:17;8.40;91.30
10384;DHT22;5238;43.508;4.980;2022-12-16T07:01:02;8.40;91.30
10384;DHT22;5238;43.508;4.980;2022-12-16T07:03:48;8.30;91.30
10384;DHT22;5238;43.508;4.980;2022-12-16T07:06:32;8.30;91.30
10384;DHT22;5238;43.508;4.980;2022-12-16T07:09:17;8.30;91.30
10384;DHT22;5238;43.508;4.980;2022-12-16T07:12:01;8.30;91.30
10384;DHT22;5238;43.508;4.980;2022-12-16T07:14:46;8.30;91.30
10384;DHT22;5238;43.508;4.980;2022-12-16T07:17:30;8.20;91.30
10384;DHT22;5238;43.508;4.980;2022-12-16T07:20:16;8.20;91.30
10384;DHT22;5238;43.508;4.980;2022-12-16T07:23:00;8.20;91.30
10384;DHT22;5238;43.508;4.980;2022-12-16T07:25:45;8.20;91.30
10384;DHT22;5238;43.508;4.980;2022-12-16T07:28:29;8.20;91.30
10384;DHT22;5238;43.508;4.980;2022-12-16T07:31:14;8.10;91.30
10384;DHT22;5238;43.508;4.980;2022-12-16T07:33:58;8.10;91.30
10384;DHT22;5238;43.508;4.980;2022-12-16T07:36:45;8.10;91.30
10384;DHT22;5238;43.508;4.980;2022-12-16T07:39:29;8.10;91.30
10384;DHT22;5238;43.508;4.980;2022-12-16T07:42:13;8.10;91.30
10384;DHT22;5238;43.508;4.980;2022-12-16T07:44:57;8.10;91.30
10384;DHT22;5238;43.508;4.980;2022-12-16T07:47:46;8.10;91.30
10384;DHT22;5238;43.508;4.980;2022-12-16T07:50:30;8.10;91.30
10384;DHT22;5238;43.508;4.980;2022-12-16T07:53:17;8.10;91.30
10384;DHT22;5238;43.508;4.980;2022-12-16T07:56:02;8.10;91.30
10384;DHT22;5238;43.508;4.980;2022-12-16T07:58:46;8.10;91.30
10384;DHT22;5238;43.508;4.980;2022-12-16T08:01:31;8.10;91.30
10384;DHT22;5238;43.508;4.980;2022-12-16T08:04:15;8.20;91.30
10384;DHT22;5238;43.508;4.980;2022-12-16T08:06:59;8.30;91.30
10384;DHT22;5238;43.508;4.980;2022-12-16T08:09:45;8.30;91.30
10384;DHT22;5238;43.508;4.980;2022-12-16T08:12:29;8.30;91.30
10384;DHT22;5238;43.508;4.980;2022-12-16T08:15:13;8.30;91.30
10384;DHT22;5238;43.508;4.980;2022-12-16T08:17:58;8.30;91.30
10384;DHT22;5238;43.508;4.980;2022-12-16T08:20:42;8.30;91.30
10384;DHT22;5238;43.508;4.980;2022-12-16T08:23:24;8.30;91.30
10384;DHT22;5238;43.508;4.980;2022-12-16T08:26:22;8.30;91.30
10384;DHT22;5238;43.508;4.980;2022-12-16T08:29:14;8.40;91.30
10384;DHT22;5238;43.508;4.980;2022-12-16T08:31:59;8.50;91.30
10384;DHT22;5238;43.508;4.980;2022-12-16T08:34:43;8.60;91.30
10384;DHT22;5238;43.508;4.980;2022-12-16T08:37:36;8.80;91.30
10384;DHT22;5238;43.508;4.980;2022-12-16T08:40:20;8.80;91.30
10384;DHT22;5238;43.508;4.980;2022-12-16T08:43:44;9.00;91.30
10384;DHT22;5238;43.508;4.980;2022-12-16T08:46:31;9.30;91.30
10384;DHT22;5238;43.508;4.980;2022-12-16T08:49:15;9.60;91.30
10384;DHT22;5238;43.508;4.980;2022-12-16T08:52:01;9.80;91.30
10384;DHT22;5238;43.508;4.980;2022-12-16T08:54:51;10.00;91.30
10384;DHT22;5238;43.508;4.980;2022-12-16T08:57:36;10.20;91.30
10384;DHT22;5238;43.508;4.980;2022-12-16T09:00:22;10.40;91.30
10384;DHT22;5238;43.508;4.980;2022-12-16T09:03:08;10.70;91.30
10384;DHT22;5238;43.508;4.980;2022-12-16T09:05:57;10.90;91.30
10384;DHT22;5238;43.508;4.980;2022-12-16T09:08:42;11.00;91.30
10384;DHT22;5238;43.508;4.980;2022-12-16T09:11:29;11.10;91.30
10384;DHT22;5238;43.508;4.980;2022-12-16T09:14:18;11.30;91.30
10384;DHT22;5238;43.508;4.980;2022-12-16T09:17:20;11.30;91.30
10384;DHT22;5238;43.508;4.980;2022-12-16T09:20:06;11.40;91.30
10384;DHT22;5238;43.508;4.980;2022-12-16T09:22:51;11.50;91.30
10384;DHT22;5238;43.508;4.980;2022-12-16T09:25:37;11.60;91.30
10384;DHT22;5238;43.508;4.980;2022-12-16T09:28:28;11.50;91.30
10384;DHT22;5238;43.508;4.980;2022-12-16T09:31:15;11.50;91.30
10384;DHT22;5238;43.508;4.980;2022-12-16T09:34:04;11.60;91.30
10384;DHT22;5238;43.508;4.980;2022-12-16T09:36:49;11.70;91.30
10384;DHT22;5238;43.508;4.980;2022-12-16T09:39:33;11.80;91.30
10384;DHT22;5238;43.508;4.980;2022-12-16T09:42:23;11.90;91.30
10384;DHT22;5238;43.508;4.980;2022-12-16T09:45:21;12.00;91.30
10384;DHT22;5238;43.508;4.980;2022-12-16T09:48:17;11.90;91.30
10384;DHT22;5238;43.508;4.980;2022-12-16T09:51:07;11.80;91.30
10384;DHT22;5238;43.508;4.980;2022-12-16T09:53:53;11.70;91.30
10384;DHT22;5238;43.508;4.980;2022-12-16T09:56:38;11.60;91.30
10384;DHT22;5238;43.508;4.980;2022-12-16T09:59:26;11.70;91.30
10384;DHT22;5238;43.508;4.980;2022-12-16T10:02:14;11.70;91.30
10384;DHT22;5238;43.508;4.980;2022-12-16T10:04:59;11.60;91.30
10384;DHT22;5238;43.508;4.980;2022-12-16T10:07:54;11.50;91.30
10384;DHT22;5238;43.508;4.980;2022-12-16T10:10:47;11.60;91.30
10384;DHT22;5238;43.508;4.980;2022-12-16T10:13:38;11.70;91.30
10384;DHT22;5238;43.508;4.980;2022-12-16T10:16:31;11.80;91.30
10384;DHT22;5238;43.508;4.980;2022-12-16T10:19:29;11.90;91.30
10384;DHT22;5238;43.508;4.980;2022-12-16T10:22:20;11.90;91.30
10384;DHT22;5238;43.508;4.980;2022-12-16T10:25:14;12.00;91.30
10384;DHT22;5238;43.508;4.980;2022-12-16T10:28:06;12.10;91.30
10384;DHT22;5238;43.508;4.980;2022-12-16T10:30:56;12.30;91.30
10384;DHT22;5238;43.508;4.980;2022-12-16T10:33:42;12.40;91.30
10384;DHT22;5238;43.508;4.980;2022-12-16T10:36:32;12.50;91.30
10384;DHT22;5238;43.508;4.980;2022-12-16T10:39:23;12.60;91.30
10384;DHT22;5238;43.508;4.980;2022-12-16T10:42:19;12.60;91.30
10384;DHT22;5238;43.508;4.980;2022-12-16T10:45:12;12.60;91.30
10384;DHT22;5238;43.508;4.980;2022-12-16T10:48:00;12.60;91.30
10384;DHT22;5238;43.508;4.980;2022-12-16T10:50:47;12.60;91.30
10384;DHT22;5238;43.508;4.980;2022-12-16T10:53:33;12.60;91.30
10384;DHT22;5238;43.508;4.980;2022-12-16T10:56:48;12.50;91.30
10384;DHT22;5238;43.508;4.980;2022-12-16T10:59:40;12.50;91.30
10384;DHT22;5238;43.508;4.980;2022-12-16T11:02:31;12.50;91.30
10384;DHT22;5238;43.508;4.980;2022-12-16T11:05:29;12.40;91.30
10384;DHT22;5238;43.508;4.980;2022-12-16T11:08:29;12.40;91.30
10384;DHT22;5238;43.508;4.980;2022-12-16T11:11:21;12.30;91.30
10384;DHT22;5238;43.508;4.980;2022-12-16T11:14:17;12.30;91.30
10384;DHT22;5238;43.508;4.980;2022-12-16T11:17:22;12.20;91.30
10384;DHT22;5238;43.508;4.980;2022-12-16T11:20:18;12.20;91.30
10384;DHT22;5238;43.508;4.980;2022-12-16T11:23:14;12.20;91.30
10384;DHT22;5238;43.508;4.980;2022-12-16T11:26:10;12.10;91.30
10384;DHT22;5238;43.508;4.980;2022-12-16T11:29:08;12.10;91.30
10384;DHT22;5238;43.508;4.980;2022-12-16T11:31:52;12.00;91.30
10384;DHT22;5238;43.508;4.980;2022-12-16T11:34:40;12.00;91.30
10384;DHT22;5238;43.508;4.980;2022-12-16T11:37:28;11.90;91.30
10384;DHT22;5238;43.508;4.980;2022-12-16T11:40:15;11.80;91.30
10384;DHT22;5238;43.508;4.980;2022-12-16T11:43:01;11.80;91.30
10384;DHT22;5238;43.508;4.980;2022-12-16T11:45:48;11.80;91.30
10384;DHT22;5238;43.508;4.980;2022-12-16T11:48:39;11.70;91.30
10384;DHT22;5238;43.508;4.980;2022-12-16T11:51:30;11.70;91.30
10384;DHT22;5238;43.508;4.980;2022-12-16T11:54:19;11.70;91.30
10384;DHT22;5238;43.508;4.980;2022-12-16T11:57:15;11.60;91.30
10384;DHT22;5238;43.508;4.980;2022-12-16T12:00:02;11.60;91.30
10384;DHT22;5238;43.508;4.980;2022-12-16T12:02:57;11.60;91.30
10384;DHT22;5238;43.508;4.980;2022-12-16T12:05:53;11.60;91.30
10384;DHT22;5238;43.508;4.980;2022-12-16T12:08:49;11.60;91.30
10384;DHT22;5238;43.508;4.980;2022-12-16T12:11:40;11.60;91.30
10384;DHT22;5238;43.508;4.980;2022-12-16T12:14:35;11.50;91.30
10384;DHT22;5238;43.508;4.980;2022-12-16T12:17:31;11.40;91.30
10384;DHT22;5238;43.508;4.980;2022-12-16T12:23:42;11.40;91.30
10384;DHT22;5238;43.508;4.980;2022-12-16T12:26:34;11.40;91.30
10384;DHT22;5238;43.508;4.980;2022-12-16T12:29:28;11.40;91.30
10384;DHT22;5238;43.508;4.980;2022-12-16T12:32:24;11.40;91.30
10384;DHT22;5238;43.508;4.980;2022-12-16T12:35:25;11.30;91.30
10384;DHT22;5238;43.508;4.980;2022-12-16T12:38:16;11.30;91.30
10384;DHT22;5238;43.508;4.980;2022-12-16T12:41:10;11.20;91.30
10384;DHT22;5238;43.508;4.980;2022-12-16T12:44:16;11.20;91.30
10384;DHT22;5238;43.508;4.980;2022-12-16T12:47:05;11.20;91.30
10384;DHT22;5238;43.508;4.980;2022-12-16T12:49:56;11.10;91.30
10384;DHT22;5238;43.508;4.980;2022-12-16T12:53:04;11.10;91.30
10384;DHT22;5238;43.508;4.980;2022-12-16T12:56:03;11.10;91.30
10384;DHT22;5238;43.508;4.980;2022-12-16T12:58:49;11.10;91.30
10384;DHT22;5238;43.508;4.980;2022-12-16T13:01:41;11.00;91.30
10384;DHT22;5238;43.508;4.980;2022-12-16T13:04:47;11.00;91.30
10384;DHT22;5238;43.508;4.980;2022-12-16T13:07:33;11.00;91.30
10384;DHT22;5238;43.508;4.980;2022-12-16T13:10:35;11.00;91.30
10384;DHT22;5238;43.508;4.980;2022-12-16T13:13:36;11.00;91.30
10384;DHT22;5238;43.508;4.980;2022-12-16T13:22:53;11.10;91.30
10384;DHT22;5238;43.508;4.980;2022-12-16T13:25:43;11.10;91.30
10384;DHT22;5238;43.508;4.980;2022-12-16T13:28:36;11.10;91.30
10384;DHT22;5238;43.508;4.980;2022-12-16T13:31:22;11.10;91.30
10384;DHT22;5238;43.508;4.980;2022-12-16T13:34:19;11.10;91.30
10384;DHT22;5238;43.508;4.980;2022-12-16T13:37:22;11.20;91.30
10384;DHT22;5238;43.508;4.980;2022-12-16T13:40:16;11.20;91.30
10384;DHT22;5238;43.508;4.980;2022-12-16T13:43:14;11.20;91.30
10384;DHT22;5238;43.508;4.980;2022-12-16T13:46:19;11.20;91.30
10384;DHT22;5238;43.508;4.980;2022-12-16T13:49:40;11.20;91.30
10384;DHT22;5238;43.508;4.980;2022-12-16T13:52:43;11.20;91.30
10384;DHT22;5238;43.508;4.980;2022-12-16T13:55:32;11.20;91.30
10384;DHT22;5238;43.508;4.980;2022-12-16T13:58:31;11.20;91.30
10384;DHT22;5238;43.508;4.980;2022-12-16T14:01:20;11.10;91.30
10384;DHT22;5238;43.508;4.980;2022-12-16T14:04:18;11.10;91.30
10384;DHT22;5238;43.508;4.980;2022-12-16T14:07:04;11.10;91.30
10384;DHT22;5238;43.508;4.980;2022-12-16T14:09:52;11.10;91.30
10384;DHT22;5238;43.508;4.980;2022-12-16T14:12:51;11.10;91.30
10384;DHT22;5238;43.508;4.980;2022-12-16T14:15:46;11.10;91.30
10384;DHT22;5238;43.508;4.980;2022-12-16T14:18:43;11.10;91.30
10384;DHT22;5238;43.508;4.980;2022-12-16T14:21:39;11.00;91.30
10384;DHT22;5238;43.508;4.980;2022-12-16T14:24:26;11.00;91.30
10384;DHT22;5238;43.508;4.980;2022-12-16T14:27:27;11.00;91.30
10384;DHT22;5238;43.508;4.980;2022-12-16T14:30:17;10.90;91.30
10384;DHT22;5238;43.508;4.980;2022-12-16T14:33:22;10.90;91.30
10384;DHT22;5238;43.508;4.980;2022-12-16T14:36:26;10.90;91.30
10384;DHT22;5238;43.508;4.980;2022-12-16T14:39:13;10.90;91.30
10384;DHT22;5238;43.508;4.980;2022-12-16T14:42:22;10.90;91.30
10384;DHT22;5238;43.508;4.980;2022-12-16T14:45:21;10.90;91.30
10384;DHT22;5238;43.508;4.980;2022-12-16T14:48:22;10.80;91.30
10384;DHT22;5238;43.508;4.980;2022-12-16T14:51:28;10.80;91.30
10384;DHT22;5238;43.508;4.980;2022-12-16T14:54:25;10.80;91.30
10384;DHT22;5238;43.508;4.980;2022-12-16T14:57:13;10.70;91.30
10384;DHT22;5238;43.508;4.980;2022-12-16T15:00:13;10.70;91.30
10384;DHT22;5238;43.508;4.980;2022-12-16T15:03:03;10.60;91.30
10384;DHT22;5238;43.508;4.980;2022-12-16T15:05:49;10.60;91.30
10384;DHT22;5238;43.508;4.980;2022-12-16T15:08:46;10.50;91.30
10384;DHT22;5238;43.508;4.980;2022-12-16T15:11:31;10.50;91.30
10384;DHT22;5238;43.508;4.980;2022-12-16T15:14:21;10.40;91.30
10384;DHT22;5238;43.508;4.980;2022-12-16T15:17:18;10.40;91.30
10384;DHT22;5238;43.508;4.980;2022-12-16T15:20:18;10.30;91.30
10384;DHT22;5238;43.508;4.980;2022-12-16T15:23:18;10.30;91.30
10384;DHT22;5238;43.508;4.980;2022-12-16T15:26:03;10.20;91.30
10384;DHT22;5238;43.508;4.980;2022-12-16T15:28:47;10.20;91.30
10384;DHT22;5238;43.508;4.980;2022-12-16T15:31:33;10.10;91.30
10384;DHT22;5238;43.508;4.980;2022-12-16T15:34:24;10.00;91.30
10384;DHT22;5238;43.508;4.980;2022-12-16T15:37:34;10.00;91.30
10384;DHT22;5238;43.508;4.980;2022-12-16T15:40:22;9.90;91.30
10384;DHT22;5238;43.508;4.980;2022-12-16T15:43:24;9.80;91.30
10384;DHT22;5238;43.508;4.980;2022-12-16T15:49:31;9.70;91.30
10384;DHT22;5238;43.508;4.980;2022-12-16T15:52:34;9.60;91.30
10384;DHT22;5238;43.508;4.980;2022-12-16T15:55:28;9.50;91.30
10384;DHT22;5238;43.508;4.980;2022-12-16T15:58:18;9.40;91.30
10384;DHT22;5238;43.508;4.980;2022-12-16T16:01:05;9.40;91.30
10384;DHT22;5238;43.508;4.980;2022-12-16T16:03:52;9.30;91.30
10384;DHT22;5238;43.508;4.980;2022-12-16T16:06:38;9.20;91.30
10384;DHT22;5238;43.508;4.980;2022-12-16T16:09:29;9.10;91.30
10384;DHT22;5238;43.508;4.980;2022-12-16T16:12:15;9.10;91.30
10384;DHT22;5238;43.508;4.980;2022-12-16T16:15:00;9.00;91.30
10384;DHT22;5238;43.508;4.980;2022-12-16T16:17:49;9.00;91.30
10384;DHT22;5238;43.508;4.980;2022-12-16T16:20:39;8.90;91.30
10384;DHT22;5238;43.508;4.980;2022-12-16T16:23:24;8.80;91.30
10384;DHT22;5238;43.508;4.980;2022-12-16T16:26:19;8.80;91.30
10384;DHT22;5238;43.508;4.980;2022-12-16T16:29:04;8.70;91.30
10384;DHT22;5238;43.508;4.980;2022-12-16T16:31:50;8.60;91.30
10384;DHT22;5238;43.508;4.980;2022-12-16T16:34:36;8.60;91.30
10384;DHT22;5238;43.508;4.980;2022-12-16T16:37:34;8.50;91.30
10384;DHT22;5238;43.508;4.980;2022-12-16T16:40:27;8.50;91.30
10384;DHT22;5238;43.508;4.980;2022-12-16T16:43:17;8.40;91.30
10384;DHT22;5238;43.508;4.980;2022-12-16T16:46:09;8.30;91.30
10384;DHT22;5238;43.508;4.980;2022-12-16T16:49:10;8.30;91.30
10384;DHT22;5238;43.508;4.980;2022-12-16T16:51:56;8.30;91.30
10384;DHT22;5238;43.508;4.980;2022-12-16T16:54:40;8.20;91.30
10384;DHT22;5238;43.508;4.980;2022-12-16T16:57:25;8.20;91.30
10384;DHT22;5238;43.508;4.980;2022-12-16T17:00:14;8.40;91.30
10384;DHT22;5238;43.508;4.980;2022-12-16T17:02:59;8.70;91.30
10384;DHT22;5238;43.508;4.980;2022-12-16T17:05:43;8.80;91.30
10384;DHT22;5238;43.508;4.980;2022-12-16T17:08:36;9.00;91.30
10384;DHT22;5238;43.508;4.980;2022-12-16T17:11:21;9.20;91.30
10384;DHT22;5238;43.508;4.980;2022-12-16T17:14:11;9.20;91.30
10384;DHT22;5238;43.508;4.980;2022-12-16T17:16:58;9.10;91.30
10384;DHT22;5238;43.508;4.980;2022-12-16T17:19:42;8.90;91.30
10384;DHT22;5238;43.508;4.980;2022-12-16T17:22:26;8.80;91.30
10384;DHT22;5238;43.508;4.980;2022-12-16T17:25:11;8.60;91.30
10384;DHT22;5238;43.508;4.980;2022-12-16T17:27:56;8.40;91.30
10384;DHT22;5238;43.508;4.980;2022-12-16T17:30:41;8.30;91.30
10384;DHT22;5238;43.508;4.980;2022-12-16T17:33:26;8.20;91.30
10384;DHT22;5238;43.508;4.980;2022-12-16T17:36:18;8.10;91.30
10384;DHT22;5238;43.508;4.980;2022-12-16T17:39:04;8.00;91.30
10384;DHT22;5238;43.508;4.980;2022-12-16T17:41:49;7.90;91.30
10384;DHT22;5238;43.508;4.980;2022-12-16T17:44:33;7.80;91.30
10384;DHT22;5238;43.508;4.980;2022-12-16T17:47:18;7.80;91.30
10384;DHT22;5238;43.508;4.980;2022-12-16T17:50:05;7.70;91.30
10384;DHT22;5238;43.508;4.980;2022-12-16T17:52:53;7.70;91.30
10384;DHT22;5238;43.508;4.980;2022-12-16T17:55:37;7.70;91.30
10384;DHT22;5238;43.508;4.980;2022-12-16T17:58:28;7.60;91.30
10384;DHT22;5238;43.508;4.980;2022-12-16T18:01:13;7.50;91.30
10384;DHT22;5238;43.508;4.980;2022-12-16T18:03:58;7.50;91.30
10384;DHT22;5238;43.508;4.980;2022-12-16T18:06:44;7.50;91.30
10384;DHT22;5238;43.508;4.980;2022-12-16T18:09:28;7.40;91.30
10384;DHT22;5238;43.508;4.980;2022-12-16T18:12:12;7.40;91.30
10384;DHT22;5238;43.508;4.980;2022-12-16T18:14:56;7.40;91.30
10384;DHT22;5238;43.508;4.980;2022-12-16T18:17:41;7.30;91.30
10384;DHT22;5238;43.508;4.980;2022-12-16T18:20:25;7.30;91.30
10384;DHT22;5238;43.508;4.980;2022-12-16T18:23:11;7.30;91.30
10384;DHT22;5238;43.508;4.980;2022-12-16T18:25:57;7.20;91.30
10384;DHT22;5238;43.508;4.980;2022-12-16T18:28:41;7.20;91.30
10384;DHT22;5238;43.508;4.980;2022-12-16T18:34:01;7.10;91.30
10384;DHT22;5238;43.508;4.980;2022-12-16T18:36:45;7.10;91.30
10384;DHT22;5238;43.508;4.980;2022-12-16T18:39:31;7.10;91.30
10384;DHT22;5238;43.508;4.980;2022-12-16T18:42:28;7.10;91.30
10384;DHT22;5238;43.508;4.980;2022-12-16T18:45:12;7.00;91.30
10384;DHT22;5238;43.508;4.980;2022-12-16T18:47:57;7.00;91.30
10384;DHT22;5238;43.508;4.980;2022-12-16T18:50:41;7.00;91.30
10384;DHT22;5238;43.508;4.980;2022-12-16T18:53:25;7.00;91.30
10384;DHT22;5238;43.508;4.980;2022-12-16T18:56:11;6.90;91.30
10384;DHT22;5238;43.508;4.980;2022-12-16T18:58:57;6.90;91.30
10384;DHT22;5238;43.508;4.980;2022-12-16T19:01:42;6.90;91.30
10384;DHT22;5238;43.508;4.980;2022-12-16T19:04:27;6.80;91.30
10384;DHT22;5238;43.508;4.980;2022-12-16T19:07:11;6.80;91.30
10384;DHT22;5238;43.508;4.980;2022-12-16T19:09:56;6.80;91.30
10384;DHT22;5238;43.508;4.980;2022-12-16T19:12:41;6.80;91.30
10384;DHT22;5238;43.508;4.980;2022-12-16T19:15:26;6.80;91.30
10384;DHT22;5238;43.508;4.980;2022-12-16T19:18:10;6.70;91.30
10384;DHT22;5238;43.508;4.980;2022-12-16T19:20:55;6.70;91.30
10384;DHT22;5238;43.508;4.980;2022-12-16T19:23:40;6.70;91.30
10384;DHT22;5238;43.508;4.980;2022-12-16T19:26:24;6.70;91.30
10384;DHT22;5238;43.508;4.980;2022-12-16T19:29:10;6.70;91.30
10384;DHT22;5238;43.508;4.980;2022-12-16T19:31:55;6.70;91.30
10384;DHT22;5238;43.508;4.980;2022-12-16T19:34:39;6.70;91.30
10384;DHT22;5238;43.508;4.980;2022-12-16T19:37:24;6.60;91.30
10384;DHT22;5238;43.508;4.980;2022-12-16T19:40:09;6.60;91.30
10384;DHT22;5238;43.508;4.980;2022-12-16T19:42:54;6.60;91.30
10384;DHT22;5238;43.508;4.980;2022-12-16T19:45:40;6.60;91.30
10384;DHT22;5238;43.508;4.980;2022-12-16T19:48:24;6.60;91.30
10384;DHT22;5238;43.508;4.980;2022-12-16T19:51:09;6.50;91.30
10384;DHT22;5238;43.508;4.980;2022-12-16T19:54:02;6.50;91.30
10384;DHT22;5238;43.508;4.980;2022-12-16T19:56:46;6.50;91.30
10384;DHT22;5238;43.508;4.980;2022-12-16T19:59:30;6.50;91.30
10384;DHT22;5238;43.508;4.980;2022-12-16T20:02:16;6.40;91.30
10384;DHT22;5238;43.508;4.980;2022-12-16T20:07:36;6.40;91.30
10384;DHT22;5238;43.508;4.980;2022-12-16T20:10:21;6.40;91.30
10384;DHT22;5238;43.508;4.980;2022-12-16T20:13:17;6.40;91.30
10384;DHT22;5238;43.508;4.980;2022-12-16T20:16:13;6.40;91.30
10384;DHT22;5238;43.508;4.980;2022-12-16T20:18:59;6.40;91.30
10384;DHT22;5238;43.508;4.980;2022-12-16T20:21:43;6.40;91.30
10384;DHT22;5238;43.508;4.980;2022-12-16T20:24:28;6.40;91.30
10384;DHT22;5238;43.508;4.980;2022-12-16T20:27:12;6.40;91.30
10384;DHT22;5238;43.508;4.980;2022-12-16T20:29:57;6.40;91.30
10384;DHT22;5238;43.508;4.980;2022-12-16T20:32:42;6.30;91.30
10384;DHT22;5238;43.508;4.980;2022-12-16T20:35:28;6.30;91.30
10384;DHT22;5238;43.508;4.980;2022-12-16T20:38:12;6.30;91.30
10384;DHT22;5238;43.508;4.980;2022-12-16T20:41:01;6.30;91.30
10384;DHT22;5238;43.508;4.980;2022-12-16T20:43:46;6.30;91.30
10384;DHT22;5238;43.508;4.980;2022-12-16T20:46:33;6.30;91.30
10384;DHT22;5238;43.508;4.980;2022-12-16T20:49:18;6.30;91.30
10384;DHT22;5238;43.508;4.980;2022-12-16T20:52:12;6.30;91.30
10384;DHT22;5238;43.508;4.980;2022-12-16T20:54:56;6.30;91.30
10384;DHT22;5238;43.508;4.980;2022-12-16T20:57:41;6.30;91.30
10384;DHT22;5238;43.508;4.980;2022-12-16T21:00:26;6.30;91.30
10384;DHT22;5238;43.508;4.980;2022-12-16T21:03:10;6.20;91.30
10384;DHT22;5238;43.508;4.980;2022-12-16T21:05:57;6.20;91.30
10384;DHT22;5238;43.508;4.980;2022-12-16T21:08:43;6.20;91.30
10384;DHT22;5238;43.508;4.980;2022-12-16T21:11:28;6.20;91.30
10384;DHT22;5238;43.508;4.980;2022-12-16T21:14:12;6.20;91.30
10384;DHT22;5238;43.508;4.980;2022-12-16T21:16:57;6.20;91.30
10384;DHT22;5238;43.508;4.980;2022-12-16T21:19:42;6.10;91.30
10384;DHT22;5238;43.508;4.980;2022-12-16T21:22:26;6.10;91.30
10384;DHT22;5238;43.508;4.980;2022-12-16T21:25:12;6.10;91.30
10384;DHT22;5238;43.508;4.980;2022-12-16T21:27:57;6.10;91.30
10384;DHT22;5238;43.508;4.980;2022-12-16T21:30:41;6.10;91.30
10384;DHT22;5238;43.508;4.980;2022-12-16T21:33:26;6.10;91.30
10384;DHT22;5238;43.508;4.980;2022-12-16T21:36:10;6.10;91.30
10384;DHT22;5238;43.508;4.980;2022-12-16T21:38:54;6.20;91.30
10384;DHT22;5238;43.508;4.980;2022-12-16T21:41:40;6.10;91.30
10384;DHT22;5238;43.508;4.980;2022-12-16T21:44:32;6.10;91.30
10384;DHT22;5238;43.508;4.980;2022-12-16T21:47:17;6.10;91.30
10384;DHT22;5238;43.508;4.980;2022-12-16T21:50:01;6.00;91.30
10384;DHT22;5238;43.508;4.980;2022-12-16T21:52:48;6.00;91.30
10384;DHT22;5238;43.508;4.980;2022-12-16T21:55:33;6.00;91.30
10384;DHT22;5238;43.508;4.980;2022-12-16T21:58:19;6.00;91.30
10384;DHT22;5238;43.508;4.980;2022-12-16T22:01:04;6.00;91.30
10384;DHT22;5238;43.508;4.980;2022-12-16T22:03:48;6.00;91.30
10384;DHT22;5238;43.508;4.980;2022-12-16T22:06:33;6.00;91.30
10384;DHT22;5238;43.508;4.980;2022-12-16T22:09:18;5.90;91.30
10384;DHT22;5238;43.508;4.980;2022-12-16T22:12:02;5.90;91.30
10384;DHT22;5238;43.508;4.980;2022-12-16T22:14:48;5.90;91.30
10384;DHT22;5238;43.508;4.980;2022-12-16T22:17:34;5.90;91.30
10384;DHT22;5238;43.508;4.980;2022-12-16T22:20:19;5.80;91.30
10384;DHT22;5238;43.508;4.980;2022-12-16T22:23:04;5.80;91.30
10384;DHT22;5238;43.508;4.980;2022-12-16T22:25:54;5.80;91.30
10384;DHT22;5238;43.508;4.980;2022-12-16T22:28:39;5.80;91.30
10384;DHT22;5238;43.508;4.980;2022-12-16T22:31:26;5.80;91.30
10384;DHT22;5238;43.508;4.980;2022-12-16T22:34:11;5.80;91.30